Time;durP1;ratioP1;P1;durP2;ratioP2;P2;SDS_P1;SDS_P2;PMS_P1;PMS_P2;Temp;Humidity;BMP_temperature;BMP_pressure;BME280_temperature;BME280_humidity;BME280_pressure;Samples;Min_cycle;Max_cycle;Signal;HPM_P1;HPM_P2
2021/08/09 00:02:35;;;;;;;5.38;1.50;;;;;;;15.82;66.54;101197.19;10203871;28;20038;-68
2021/08/09 00:07:31;;;;;;;3.75;1.17;;;;;;;15.82;66.97;101199.94;10203974;28;20058;-69
2021/08/09 00:12:28;;;;;;;4.13;1.42;;;;;;;15.78;66.77;101205.31;10205294;28;20050;-69
2021/08/09 00:17:24;;;;;;;5.47;1.30;;;;;;;15.75;66.59;101195.78;10213513;28;20081;-68
2021/08/09 00:22:21;;;;;;;4.90;1.50;;;;;;;15.73;67.11;101184.31;10213761;28;20532;-68
2021/08/09 00:27:17;;;;;;;4.68;1.50;;;;;;;15.69;67.19;101188.88;10204156;28;20041;-67
2021/08/09 00:32:14;;;;;;;5.57;1.55;;;;;;;15.64;66.99;101196.53;10204170;28;20046;-67
2021/08/09 00:37:10;;;;;;;2.97;1.25;;;;;;;15.60;67.17;101190.91;10208426;28;20125;-68
2021/08/09 00:42:07;;;;;;;4.30;1.50;;;;;;;15.53;67.33;101196.16;10203342;28;20465;-69
2021/08/09 00:47:04;;;;;;;5.70;1.40;;;;;;;15.47;67.82;101198.31;10210746;28;20042;-70
2021/08/09 00:52:02;;;;;;;5.63;1.30;;;;;;;15.52;67.62;101200.06;10194345;28;20080;-69
2021/08/09 00:57:01;;;;;;;4.35;1.30;;;;;;;15.49;67.90;101201.53;10201527;28;20053;-69
2021/08/09 01:01:57;;;;;;;5.82;2.05;;;;;;;15.51;68.26;101198.47;10191025;28;20361;-71
2021/08/09 01:06:54;;;;;;;3.17;1.10;;;;;;;15.49;68.32;101200.75;11176985;23;20052;-70
2021/08/09 01:11:59;;;;;;;5.95;1.73;;;;;;;15.53;68.66;101202.47;10124392;28;20038;-69
2021/08/09 01:16:57;;;;;;;10.48;1.65;;;;;;;15.60;68.49;101206.66;10133708;28;20051;-68
2021/08/09 01:22:02;;;;;;;5.22;1.70;;;;;;;15.65;68.80;101204.47;10137628;28;20053;-69
2021/08/09 01:27:06;;;;;;;5.82;1.50;;;;;;;15.70;69.00;101207.03;10139456;28;20153;-67
2021/08/09 01:32:03;;;;;;;4.25;1.20;;;;;;;15.65;69.30;101198.97;10145975;28;20074;-67
2021/08/09 01:37:01;;;;;;;4.68;1.48;;;;;;;15.69;69.25;101199.91;10153654;28;20050;-69
2021/08/09 01:41:58;;;;;;;5.78;1.95;;;;;;;15.72;69.11;101204.75;10134372;28;20077;-69
2021/08/09 01:46:55;;;;;;;6.60;2.03;;;;;;;15.73;69.56;101203.63;10130127;28;20740;-69
2021/08/09 01:51:52;;;;;;;4.40;1.40;;;;;;;15.71;69.38;101203.16;10144984;28;20066;-68
2021/08/09 01:56:49;;;;;;;4.03;1.63;;;;;;;15.68;69.34;101191.94;10140202;28;20103;-67
2021/08/09 02:01:45;;;;;;;3.40;1.40;;;;;;;15.71;69.12;101203.16;10129458;28;20059;-65
2021/08/09 02:06:43;;;;;;;4.40;1.65;;;;;;;15.65;69.26;101198.97;10131153;28;20039;-67
2021/08/09 02:12:06;;;;;;;7.60;1.58;;;;;;;15.62;69.47;101207.09;10147481;28;20047;-70
2021/08/09 02:17:10;;;;;;;3.80;1.45;;;;;;;15.63;69.36;101217.78;10148020;28;20059;-68
2021/08/09 02:22:10;;;;;;;8.57;2.20;;;;;;;15.63;69.31;101228.00;10139169;28;20043;-67
2021/08/09 02:27:10;;;;;;;3.80;1.55;;;;;;;15.59;69.32;101227.88;10140460;28;20077;-67
2021/08/09 02:32:08;;;;;;;7.70;1.70;;;;;;;15.56;69.52;101223.03;10148220;28;20066;-66
2021/08/09 02:37:08;;;;;;;5.97;2.08;;;;;;;15.52;69.58;101227.63;10153284;28;20078;-68
2021/08/09 02:42:05;;;;;;;4.65;1.73;;;;;;;15.55;69.09;101232.47;10148774;28;20074;-70
2021/08/09 02:47:02;;;;;;;3.08;1.00;;;;;;;15.55;69.50;101236.03;10135633;28;20042;-69
2021/08/09 02:52:01;;;;;;;6.10;1.85;;;;;;;15.50;69.29;101235.41;10143226;28;20109;-69
2021/08/09 02:56:58;;;;;;;4.93;1.40;;;;;;;15.54;69.25;101230.84;10153150;28;20432;-69
2021/08/09 03:01:56;;;;;;;4.78;1.75;;;;;;;15.50;69.45;101240.94;10156803;28;20125;-68
2021/08/09 03:06:54;;;;;;;6.47;2.05;;;;;;;15.47;69.40;101236.09;10139855;28;20042;-69
2021/08/09 03:11:50;;;;;;;7.20;1.75;;;;;;;15.41;69.44;101238.28;10157717;28;20042;-68
2021/08/09 03:16:48;;;;;;;5.13;1.65;;;;;;;15.36;69.63;101231.00;10170748;28;20431;-69
2021/08/09 03:21:57;;;;;;;8.15;2.03;;;;;;;15.33;69.90;101228.13;10183670;28;20484;-68
2021/08/09 03:26:54;;;;;;;7.05;1.58;;;;;;;15.32;70.45;101232.03;10131323;28;20070;-69
2021/08/09 03:31:51;;;;;;;6.40;1.48;;;;;;;15.27;70.40;101227.53;10135604;28;20105;-68
2021/08/09 03:36:49;;;;;;;5.57;1.60;;;;;;;15.23;70.93;101242.31;10145422;28;20049;-69
2021/08/09 03:41:46;;;;;;;4.65;1.75;;;;;;;15.23;70.64;101236.81;10145015;28;20449;-68
2021/08/09 03:46:43;;;;;;;5.78;1.80;;;;;;;15.20;70.95;101241.03;10134510;28;20547;-67
2021/08/09 03:51:40;;;;;;;7.20;2.00;;;;;;;15.18;71.46;101246.06;10160761;28;20044;-67
2021/08/09 03:56:37;;;;;;;5.78;1.63;;;;;;;15.15;71.33;101250.31;10167358;28;20669;-69
2021/08/09 04:01:38;;;;;;;6.53;1.95;;;;;;;15.14;71.54;101256.94;10188458;28;20054;-69
2021/08/09 04:06:35;;;;;;;8.63;1.90;;;;;;;15.13;71.68;101251.75;10141081;28;20042;-68
2021/08/09 04:11:31;;;;;;;6.50;1.90;;;;;;;15.13;71.68;101254.53;10170360;28;20038;-67
2021/08/09 04:16:28;;;;;;;7.80;2.30;;;;;;;15.15;71.90;101257.75;10163102;28;20100;-69
2021/08/09 04:21:25;;;;;;;8.25;2.00;;;;;;;15.10;71.82;101261.50;10191312;28;20121;-70
2021/08/09 04:26:23;;;;;;;6.63;1.73;;;;;;;15.07;72.10;101266.91;10131520;28;20050;-71
2021/08/09 04:31:20;;;;;;;9.02;2.58;;;;;;;15.03;71.96;101266.75;10153864;28;20038;-71
2021/08/09 04:36:17;;;;;;;7.80;2.03;;;;;;;15.05;72.13;101269.19;10138420;28;20073;-69
2021/08/09 04:41:14;;;;;;;7.03;1.95;;;;;;;15.07;71.84;101277.91;10183535;28;20665;-69
2021/08/09 04:46:11;;;;;;;9.23;2.53;;;;;;;15.06;72.34;101276.28;10148601;28;20050;-70
2021/08/09 04:51:07;;;;;;;5.68;1.80;;;;;;;15.09;72.21;101281.13;10140880;28;20420;-70
2021/08/09 04:56:04;;;;;;;13.07;3.15;;;;;;;15.10;72.16;101282.75;10132082;28;20108;-69
2021/08/09 05:01:01;;;;;;;7.13;2.10;;;;;;;15.11;72.56;101292.63;10158151;28;20121;-68
2021/08/09 05:05:57;;;;;;;8.20;2.15;;;;;;;15.12;72.36;101289.53;10131033;28;20126;-68
2021/08/09 05:10:54;;;;;;;5.38;1.95;;;;;;;15.10;72.14;101302.81;10145554;28;20768;-69
2021/08/09 05:15:59;;;;;;;6.88;2.15;;;;;;;15.08;72.15;101301.53;10154890;28;20125;-69
2021/08/09 05:20:56;;;;;;;8.07;2.47;;;;;;;15.09;72.54;101308.69;10189924;28;20129;-69
2021/08/09 05:25:52;;;;;;;9.63;2.10;;;;;;;15.09;72.26;101312.22;10145478;28;20098;-70
2021/08/09 05:30:49;;;;;;;6.65;1.90;;;;;;;15.12;72.12;101302.50;10124439;28;20074;-69
2021/08/09 05:35:46;;;;;;;8.00;2.70;;;;;;;15.14;72.45;101311.22;10128079;28;20862;-68
2021/08/09 05:40:42;;;;;;;7.13;2.00;;;;;;;15.15;72.72;101315.59;10109361;28;20663;-64
2021/08/09 05:45:39;;;;;;;11.70;2.88;;;;;;;15.26;71.89;101325.06;10140850;28;20051;-64
2021/08/09 05:50:36;;;;;;;6.97;2.40;;;;;;;15.32;72.05;101315.47;10161786;28;20046;-65
2021/08/09 05:55:33;;;;;;;9.18;2.13;;;;;;;15.31;71.76;101310.28;10157561;28;20046;-66
2021/08/09 06:00:30;;;;;;;8.80;2.00;;;;;;;15.29;71.93;101313.41;10151771;28;20042;-66
2021/08/09 06:05:27;;;;;;;8.68;2.60;;;;;;;15.34;71.70;101320.66;10141351;28;20099;-65
2021/08/09 06:10:24;;;;;;;8.63;1.80;;;;;;;15.36;71.83;101324.69;10170300;28;20072;-66
2021/08/09 06:15:20;;;;;;;7.68;2.35;;;;;;;15.43;71.84;101317.81;10171905;28;20083;-65
2021/08/09 06:20:17;;;;;;;8.43;2.45;;;;;;;15.43;71.54;101328.84;10157480;28;20081;-66
2021/08/09 06:25:13;;;;;;;11.40;2.20;;;;;;;15.49;71.79;101313.72;10168374;28;20142;-66
2021/08/09 06:30:11;;;;;;;9.65;2.78;;;;;;;15.53;71.72;101328.47;10143947;28;20489;-68
2021/08/09 06:35:08;;;;;;;9.15;2.47;;;;;;;15.59;71.23;101321.56;10140913;28;20489;-67
2021/08/09 06:40:05;;;;;;;8.23;2.20;;;;;;;15.71;71.30;101329.97;10171954;28;20121;-66
2021/08/09 06:45:05;;;;;;;9.98;2.10;;;;;;;15.72;70.87;101331.56;10156054;28;20062;-66
2021/08/09 06:50:02;;;;;;;10.02;2.33;;;;;;;15.83;70.77;101331.13;10158006;28;20082;-67
2021/08/09 06:54:59;;;;;;;7.07;2.10;;;;;;;15.89;70.38;101335.31;10140952;28;20129;-67
2021/08/09 06:59:55;;;;;;;10.70;2.70;;;;;;;15.92;70.59;101345.66;10139339;28;20535;-67
2021/08/09 07:04:52;;;;;;;17.17;3.28;;;;;;;15.96;70.53;101338.31;10131472;28;20566;-68
2021/08/09 07:09:48;;;;;;;14.27;2.45;;;;;;;16.03;70.74;101335.81;10164431;28;20107;-68
2021/08/09 07:14:45;;;;;;;9.35;2.63;;;;;;;16.10;70.13;101341.56;10192875;28;20045;-68
2021/08/09 07:19:41;;;;;;;25.60;4.18;;;;;;;16.10;70.38;101347.09;10180277;28;20054;-68
2021/08/09 07:24:38;;;;;;;19.20;2.78;;;;;;;16.12;70.39;101347.56;10192824;28;20066;-66
2021/08/09 07:29:38;;;;;;;8.93;2.50;;;;;;;16.20;70.79;101340.34;10172562;28;20072;-68
2021/08/09 07:34:35;;;;;;;7.82;2.20;;;;;;;16.25;70.24;101344.84;10191200;28;20569;-66
2021/08/09 07:39:35;;;;;;;10.27;2.70;;;;;;;16.42;70.75;101333.59;10138379;28;20100;-68
2021/08/09 07:44:32;;;;;;;9.27;2.88;;;;;;;16.55;70.06;101339.97;10182068;28;20038;-68
2021/08/09 07:49:28;;;;;;;12.60;2.50;;;;;;;16.62;69.94;101346.53;10123515;28;20058;-66
2021/08/09 07:54:25;;;;;;;10.85;2.38;;;;;;;16.67;69.53;101347.44;10186205;28;20051;-66
2021/08/09 07:59:22;;;;;;;12.18;3.22;;;;;;;16.71;69.23;101348.34;10196754;28;20125;-68
2021/08/09 08:04:18;;;;;;;8.15;2.58;;;;;;;16.80;69.36;101354.59;10161115;28;20065;-67
2021/08/09 08:09:15;;;;;;;8.68;2.42;;;;;;;16.75;69.11;101354.81;10156961;28;20077;-66
2021/08/09 08:14:11;;;;;;;11.82;2.63;;;;;;;16.74;68.63;101358.72;10147069;28;20466;-66
2021/08/09 08:19:08;;;;;;;9.52;2.90;;;;;;;16.85;69.31;101359.09;10147362;28;20050;-67
2021/08/09 08:24:04;;;;;;;11.63;2.42;;;;;;;16.99;68.69;101371.44;10134369;28;20504;-67
2021/08/09 08:29:01;;;;;;;8.77;2.80;;;;;;;17.01;68.14;101385.69;10161014;28;20049;-67
2021/08/09 08:33:58;;;;;;;16.98;3.00;;;;;;;17.00;67.78;101378.53;10165761;28;20158;-67
2021/08/09 08:38:56;;;;;;;8.57;2.15;;;;;;;17.10;67.84;101387.53;10186459;28;20136;-67
2021/08/09 08:43:52;;;;;;;10.60;2.65;;;;;;;17.29;67.74;101378.63;10155111;28;20039;-67
2021/08/09 08:48:51;;;;;;;13.95;3.03;;;;;;;17.61;67.10;101385.94;10176807;28;20050;-67
2021/08/09 08:53:52;;;;;;;8.57;2.80;;;;;;;17.78;65.71;101387.66;10180095;28;20121;-67
2021/08/09 08:58:49;;;;;;;13.60;2.40;;;;;;;17.80;63.64;101388.09;10166560;28;20046;-66
2021/08/09 09:03:45;;;;;;;10.13;2.33;;;;;;;17.86;64.92;101396.97;10139007;28;20038;-67
2021/08/09 09:08:47;;;;;;;10.57;2.78;;;;;;;17.96;63.31;101395.66;10167603;28;20054;-67
2021/08/09 09:14:03;;;;;;;9.95;2.45;;;;;;;17.97;62.78;101397.28;10176404;28;20042;-67
2021/08/09 09:18:59;;;;;;;10.18;2.17;;;;;;;18.05;63.71;101404.63;10145154;28;20129;-67
2021/08/09 09:24:07;;;;;;;12.00;3.05;;;;;;;18.36;62.74;101397.59;10161759;28;20419;-67
2021/08/09 09:29:15;;;;;;;9.30;2.25;;;;;;;18.47;62.13;101412.50;10170568;28;20050;-67
2021/08/09 09:34:14;;;;;;;8.63;1.88;;;;;;;18.34;61.45;101419.28;10171944;28;20096;-67
2021/08/09 09:39:26;;;;;;;11.80;2.55;;;;;;;18.54;60.82;101412.69;10167923;28;20104;-66
2021/08/09 09:44:24;;;;;;;12.63;2.00;;;;;;;18.86;60.57;101412.75;10155342;28;20084;-66
2021/08/09 09:49:36;;;;;;;11.13;2.42;;;;;;;19.03;58.79;101420.72;10194621;28;20080;-67
2021/08/09 09:54:33;;;;;;;7.68;1.92;;;;;;;19.20;57.06;101429.81;10170883;28;20070;-67
2021/08/09 09:59:30;;;;;;;6.78;1.80;;;;;;;19.53;56.17;101421.84;10174948;28;20053;-67
2021/08/09 10:04:26;;;;;;;7.05;1.67;;;;;;;19.70;55.50;101433.75;10153995;28;20091;-66
2021/08/09 10:09:23;;;;;;;6.07;1.60;;;;;;;20.00;52.51;101431.22;10168864;28;20089;-67
2021/08/09 10:14:19;;;;;;;8.00;3.00;;;;;;;20.95;50.51;101438.16;10150396;28;20066;-67
2021/08/09 10:19:19;;;;;;;4.45;1.35;;;;;;;21.07;47.96;101449.09;10130721;28;20098;-66
2021/08/09 10:24:39;;;;;;;6.43;1.42;;;;;;;20.74;48.11;101442.19;10134784;28;20070;-67
2021/08/09 10:29:58;;;;;;;5.20;1.38;;;;;;;20.14;48.30;101444.59;10121072;28;20120;-66
2021/08/09 10:34:55;;;;;;;5.15;1.25;;;;;;;20.16;48.46;101448.59;10106197;28;20074;-65
2021/08/09 10:39:54;;;;;;;3.15;1.00;;;;;;;20.52;48.53;101442.97;10169026;28;20057;-66
2021/08/09 10:44:50;;;;;;;7.10;1.77;;;;;;;20.89;48.79;101442.47;10171225;28;20043;-67
2021/08/09 10:49:47;;;;;;;9.38;1.60;;;;;;;21.12;47.02;101459.91;10121691;28;20093;-66
2021/08/09 10:54:44;;;;;;;5.13;1.45;;;;;;;20.90;46.93;101455.16;10152335;28;20080;-66
2021/08/09 10:59:45;;;;;;;6.22;1.10;;;;;;;20.84;48.17;101453.84;10180316;28;20097;-67
2021/08/09 11:04:41;;;;;;;5.55;1.63;;;;;;;20.83;48.91;101468.94;10159365;28;20074;-67
2021/08/09 11:09:41;;;;;;;7.22;2.25;;;;;;;21.08;47.94;101459.06;10159883;28;20078;-67
2021/08/09 11:14:59;;;;;;;4.65;1.20;;;;;;;21.13;48.81;101455.16;10163280;28;20150;-67
2021/08/09 11:20:11;;;;;;;3.75;1.17;;;;;;;20.75;49.02;101445.78;10154351;28;20093;-66
2021/08/09 11:25:30;;;;;;;5.47;1.40;;;;;;;20.58;49.41;101452.59;10142802;28;20093;-66
2021/08/09 11:30:40;;;;;;;7.22;1.73;;;;;;;20.43;49.68;101457.06;10166925;28;20042;-67
2021/08/09 11:35:47;;;;;;;5.03;1.13;;;;;;;20.38;49.90;101460.94;10174133;28;20093;-67
2021/08/09 11:40:49;;;;;;;4.30;1.00;;;;;;;20.34;49.76;101471.16;10163917;28;20069;-67
2021/08/09 11:45:45;;;;;;;5.40;1.17;;;;;;;20.26;49.22;101480.53;10171331;28;20049;-67
2021/08/09 11:50:42;;;;;;;5.72;1.08;;;;;;;20.44;49.78;101474.53;10157266;28;20050;-67
2021/08/09 11:55:38;;;;;;;3.40;0.70;;;;;;;20.50;49.53;101478.63;10141921;28;20062;-66
2021/08/09 12:00:37;;;;;;;5.72;1.17;;;;;;;20.70;49.43;101487.75;10119662;28;20472;-66
2021/08/09 12:05:33;;;;;;;5.40;0.90;;;;;;;20.71;49.08;101481.84;10140664;28;20048;-67
2021/08/09 12:10:31;;;;;;;4.85;1.30;;;;;;;20.50;48.33;101484.19;10170148;28;20057;-67
2021/08/09 12:15:28;;;;;;;5.07;0.98;;;;;;;20.56;49.56;101482.72;10140853;28;20070;-66
2021/08/09 12:20:24;;;;;;;4.53;1.10;;;;;;;20.36;48.73;101496.59;10161333;28;20515;-67
2021/08/09 12:25:24;;;;;;;4.60;1.33;;;;;;;20.13;50.22;101495.72;10171430;28;20045;-67
2021/08/09 12:30:21;;;;;;;7.78;1.77;;;;;;;20.10;50.36;101483.38;10192089;28;20061;-67
2021/08/09 12:35:30;;;;;;;5.93;1.27;;;;;;;20.01;50.26;101493.09;10190293;28;20570;-67
2021/08/09 12:40:38;;;;;;;6.95;1.75;;;;;;;20.12;50.58;101488.56;10154087;28;20124;-67
2021/08/09 12:45:35;;;;;;;7.15;1.20;;;;;;;20.28;50.48;101491.28;10175403;28;20397;-67
2021/08/09 12:50:33;;;;;;;6.25;1.27;;;;;;;20.64;48.71;101512.25;10116611;28;20066;-67
2021/08/09 12:55:30;;;;;;;5.30;1.20;;;;;;;20.87;48.89;101501.19;10138368;28;20061;-67
2021/08/09 13:00:27;;;;;;;5.53;1.63;;;;;;;20.69;49.15;101508.38;10186563;28;20225;-67
2021/08/09 13:05:24;;;;;;;10.63;1.75;;;;;;;20.97;49.86;101502.53;10122278;28;20046;-67
2021/08/09 13:10:21;;;;;;;7.03;1.17;;;;;;;20.83;48.59;101493.94;10131899;28;20060;-67
2021/08/09 13:15:18;;;;;;;5.70;1.30;;;;;;;20.96;49.18;101478.72;10160848;28;20543;-67
2021/08/09 13:20:14;;;;;;;4.82;1.25;;;;;;;20.72;49.77;101469.53;10126718;28;20668;-67
2021/08/09 13:25:11;;;;;;;6.38;1.13;;;;;;;20.89;50.21;101473.03;10173605;28;20077;-67
2021/08/09 13:30:08;;;;;;;3.67;1.05;;;;;;;20.96;49.01;101484.28;10156816;28;20057;-67
2021/08/09 13:35:05;;;;;;;3.85;0.95;;;;;;;21.04;49.72;101480.44;10119043;28;20043;-67
2021/08/09 13:40:03;;;;;;;5.95;1.10;;;;;;;20.98;50.48;101470.81;10192980;28;20054;-67
2021/08/09 13:45:01;;;;;;;4.03;1.20;;;;;;;20.90;51.39;101469.84;10178740;28;20468;-66
2021/08/09 13:49:59;;;;;;;11.50;1.60;;;;;;;20.85;52.30;101466.59;10167180;28;20058;-66
2021/08/09 13:54:55;;;;;;;6.68;1.63;;;;;;;20.63;51.60;101477.31;10178095;28;20078;-66
2021/08/09 13:59:52;;;;;;;5.47;1.20;;;;;;;20.58;52.04;101466.50;10137988;28;20047;-66
2021/08/09 14:04:48;;;;;;;6.43;1.58;;;;;;;20.44;51.93;101468.97;10177920;28;20190;-66
2021/08/09 14:09:45;;;;;;;4.95;1.30;;;;;;;20.21;51.57;101472.50;10161853;28;20050;-66
2021/08/09 14:14:41;;;;;;;6.47;1.55;;;;;;;20.18;51.84;101473.22;10180493;28;21063;-66
2021/08/09 14:19:38;;;;;;;9.30;1.70;;;;;;;20.23;51.30;101459.03;10188723;28;20417;-66
2021/08/09 14:24:34;;;;;;;7.10;1.50;;;;;;;20.47;51.54;101468.22;10158351;28;20077;-66
2021/08/09 14:29:32;;;;;;;4.95;1.45;;;;;;;20.60;51.42;101455.81;10166584;28;20073;-66
2021/08/09 14:34:29;;;;;;;6.32;1.38;;;;;;;20.91;51.71;101456.75;10172785;28;20415;-66
2021/08/09 14:39:25;;;;;;;6.47;1.45;;;;;;;21.19;51.91;101465.59;10171542;28;20073;-66
2021/08/09 14:44:22;;;;;;;5.45;1.30;;;;;;;21.10;50.19;101450.34;10187582;28;20042;-66
2021/08/09 14:49:19;;;;;;;4.65;1.20;;;;;;;21.37;50.28;101448.38;10173324;28;20082;-66
2021/08/09 14:54:17;;;;;;;11.05;1.63;;;;;;;21.46;49.31;101440.59;10165648;28;20538;-67
2021/08/09 14:59:14;;;;;;;6.30;1.50;;;;;;;21.62;51.17;101444.00;10178659;28;20568;-66
2021/08/09 15:04:10;;;;;;;5.60;1.40;;;;;;;21.58;49.33;101445.97;10159037;28;20599;-67
2021/08/09 15:09:07;;;;;;;5.20;1.20;;;;;;;21.37;49.24;101440.81;10155406;28;20074;-65
2021/08/09 15:14:03;;;;;;;4.75;1.15;;;;;;;21.31;49.71;101438.75;10154818;28;20089;-66
2021/08/09 15:19:02;;;;;;;6.43;1.58;;;;;;;21.22;49.78;101442.59;10176904;28;20084;-67
2021/08/09 15:23:58;;;;;;;5.50;1.33;;;;;;;21.04;49.72;101435.94;10188229;28;20057;-66
2021/08/09 15:28:56;;;;;;;6.43;1.15;;;;;;;21.02;50.88;101435.50;10175664;28;20072;-65
2021/08/09 15:33:53;;;;;;;7.85;1.42;;;;;;;21.01;50.44;101445.03;10188980;28;20046;-67
2021/08/09 15:38:50;;;;;;;4.90;1.17;;;;;;;21.12;49.69;101437.69;10156503;28;20049;-68
2021/08/09 15:43:47;;;;;;;6.82;1.10;;;;;;;21.21;49.67;101435.44;10187800;28;20034;-67
2021/08/09 15:48:43;;;;;;;6.13;1.10;;;;;;;21.36;49.94;101442.00;10184266;28;20090;-67
2021/08/09 15:53:42;;;;;;;7.45;1.60;;;;;;;21.34;48.24;101430.44;10159237;28;20077;-66
2021/08/09 15:58:39;;;;;;;5.47;1.10;;;;;;;21.23;48.57;101427.53;10170125;28;20431;-66
2021/08/09 16:03:38;;;;;;;4.28;1.50;;;;;;;20.97;48.53;101441.38;10136157;28;20077;-66
2021/08/09 16:08:35;;;;;;;3.13;1.02;;;;;;;20.85;49.77;101436.81;10155300;28;20680;-65
2021/08/09 16:13:32;;;;;;;6.57;1.40;;;;;;;20.83;51.55;101438.38;10162181;28;20100;-67
2021/08/09 16:18:29;;;;;;;5.55;1.50;;;;;;;20.78;51.59;101434.72;10157981;28;20466;-66
2021/08/09 16:23:25;;;;;;;5.28;1.50;;;;;;;20.77;52.24;101449.78;10192199;28;20042;-66
2021/08/09 16:28:22;;;;;;;4.80;1.25;;;;;;;21.00;51.59;101451.75;10128368;28;20042;-67
2021/08/09 16:33:18;;;;;;;4.70;1.13;;;;;;;21.03;51.18;101453.81;10187789;28;20054;-66
2021/08/09 16:38:15;;;;;;;5.85;1.30;;;;;;;21.35;50.32;101434.03;10143059;28;20107;-67
2021/08/09 16:43:13;;;;;;;4.68;1.17;;;;;;;21.59;48.44;101439.19;10179923;28;20505;-67
2021/08/09 16:48:10;;;;;;;5.38;1.27;;;;;;;21.88;48.61;101434.00;10140629;28;20050;-66
2021/08/09 16:53:07;;;;;;;3.75;1.00;;;;;;;22.08;47.94;101433.88;10145749;28;20420;-66
2021/08/09 16:58:03;;;;;;;6.38;1.45;;;;;;;22.44;46.57;101433.13;10154304;28;20062;-67
2021/08/09 17:03:00;;;;;;;5.50;1.40;;;;;;;22.35;46.89;101429.84;10194347;28;20512;-66
2021/08/09 17:07:56;;;;;;;5.50;1.52;;;;;;;21.76;47.50;101442.59;10174115;28;20070;-66
2021/08/09 17:12:53;;;;;;;4.72;1.20;;;;;;;21.45;48.40;101450.13;10155415;28;20051;-65
2021/08/09 17:17:50;;;;;;;5.55;1.15;;;;;;;21.16;49.75;101441.28;10124157;28;20042;-67
2021/08/09 17:22:47;;;;;;;4.95;1.08;;;;;;;20.97;51.05;101441.38;10162297;28;20505;-67
2021/08/09 17:27:44;;;;;;;8.18;1.50;;;;;;;20.83;52.17;101421.69;10155135;28;20117;-67
2021/08/09 17:32:40;;;;;;;5.55;1.40;;;;;;;20.65;53.02;101424.94;10153562;28;20571;-66
2021/08/09 17:37:37;;;;;;;7.20;1.83;;;;;;;20.46;54.20;101433.31;10158868;28;20081;-66
2021/08/09 17:42:33;;;;;;;9.43;4.10;;;;;;;19.89;57.62;101497.63;10155361;28;20143;-68
2021/08/09 17:47:31;;;;;;;27.55;7.93;;;;;;;17.97;72.64;101488.59;10165833;28;20050;-67
2021/08/09 17:52:27;;;;;;;18.00;7.22;;;;;;;17.22;75.58;101498.88;10161960;28;20081;-68
2021/08/09 17:57:24;;;;;;;12.98;6.68;;;;;;;16.85;72.29;101500.78;10165434;28;20677;-68
2021/08/09 18:02:20;;;;;;;13.50;6.50;;;;;;;16.71;75.00;101519.53;10174456;28;20077;-67
2021/08/09 18:07:17;;;;;;;17.05;7.90;;;;;;;16.29;74.22;101505.81;10168592;28;20050;-67
2021/08/09 18:12:13;;;;;;;9.50;5.13;;;;;;;16.39;75.42;101508.16;10169361;28;20586;-68
2021/08/09 18:17:10;;;;;;;10.93;5.80;;;;;;;16.42;79.42;101508.28;10150040;28;20046;-68
2021/08/09 18:22:06;;;;;;;10.93;6.15;;;;;;;16.44;79.50;101515.44;10164196;28;20046;-66
2021/08/09 18:27:03;;;;;;;16.42;7.40;;;;;;;16.51;80.97;101510.97;10167864;28;20054;-65
2021/08/09 18:32:00;;;;;;;15.85;8.02;;;;;;;16.46;80.52;101519.47;10158759;28;20074;-65
2021/08/09 18:37:02;;;;;;;16.80;8.75;;;;;;;16.44;79.15;101516.25;10165352;28;20836;-66
2021/08/09 18:41:58;;;;;;;15.43;8.70;;;;;;;16.40;81.63;101507.00;10169144;28;20049;-66
2021/08/09 18:46:55;;;;;;;18.95;8.88;;;;;;;16.31;82.57;101520.88;10185149;28;20479;-68
2021/08/09 18:51:51;;;;;;;18.63;9.40;;;;;;;16.25;83.62;101529.72;10157426;28;20115;-69
2021/08/09 18:56:48;;;;;;;16.05;10.13;;;;;;;16.18;82.98;101525.53;10182096;28;20046;-66
2021/08/09 19:01:45;;;;;;;17.15;9.45;;;;;;;16.16;82.52;101532.53;10172583;28;20411;-68
2021/08/09 19:06:44;;;;;;;16.27;8.85;;;;;;;16.14;80.92;101529.31;10188087;28;20065;-67
2021/08/09 19:11:41;;;;;;;17.33;9.88;;;;;;;16.11;80.20;101536.31;10143230;28;20100;-66
2021/08/09 19:16:37;;;;;;;18.25;10.68;;;;;;;16.12;82.11;101526.88;10177253;28;20073;-67
2021/08/09 19:21:50;;;;;;;21.98;12.05;;;;;;;16.08;82.39;101525.13;10189458;28;20054;-67
2021/08/09 19:26:47;;;;;;;20.27;11.23;;;;;;;16.04;84.49;101525.00;10161698;28;20038;-67
2021/08/09 19:31:43;;;;;;;19.45;11.18;;;;;;;15.96;84.62;101512.88;10190910;28;20069;-67
2021/08/09 19:36:40;;;;;;;17.75;11.00;;;;;;;15.89;84.54;101512.59;10177411;28;20046;-67
2021/08/09 19:41:36;;;;;;;20.35;11.32;;;;;;;15.86;84.87;101502.22;10164991;28;20038;-66
2021/08/09 19:46:34;;;;;;;18.85;11.60;;;;;;;15.82;84.46;101503.25;10171144;28;20504;-66
2021/08/09 19:51:31;;;;;;;19.05;11.10;;;;;;;15.83;85.35;101502.09;10154883;28;20496;-66
2021/08/09 19:56:27;;;;;;;19.73;11.77;;;;;;;15.76;85.16;101502.63;10170769;28;20073;-66
2021/08/09 20:01:24;;;;;;;18.73;11.35;;;;;;;15.72;84.10;101490.66;10151483;28;20157;-66
2021/08/09 20:06:20;;;;;;;23.20;12.10;;;;;;;15.67;84.96;101488.88;10171302;28;20515;-66
2021/08/09 20:11:17;;;;;;;19.95;11.15;;;;;;;15.60;84.65;101494.09;10162963;28;20050;-67
2021/08/09 20:16:13;;;;;;;20.63;11.23;;;;;;;15.57;84.16;101489.22;10171165;28;20081;-68
2021/08/09 20:21:10;;;;;;;20.02;11.60;;;;;;;15.55;84.59;101491.53;10151140;28;20047;-67
2021/08/09 20:26:07;;;;;;;22.30;12.38;;;;;;;15.54;84.91;101503.69;10167064;28;20142;-66
2021/08/09 20:31:04;;;;;;;19.90;10.70;;;;;;;15.54;85.38;101495.41;10143016;28;20055;-67
2021/08/09 20:36:00;;;;;;;16.45;9.48;;;;;;;15.48;85.30;101502.25;10163014;28;20046;-67
2021/08/09 20:40:57;;;;;;;17.73;10.05;;;;;;;15.43;85.12;101505.19;10129462;28;20039;-67
2021/08/09 20:45:53;;;;;;;17.63;9.50;;;;;;;15.35;85.29;101496.66;10159210;28;20090;-67
2021/08/09 20:50:50;;;;;;;18.52;9.63;;;;;;;15.27;84.55;101497.50;10156060;28;20089;-66
2021/08/09 20:55:46;;;;;;;17.58;9.88;;;;;;;15.21;85.25;101496.06;10164407;28;20576;-65
2021/08/09 21:00:43;;;;;;;16.98;9.65;;;;;;;15.15;85.24;101494.63;10175786;28;20068;-65
2021/08/09 21:05:40;;;;;;;17.98;9.40;;;;;;;15.08;85.53;101499.84;10169226;28;20841;-65
2021/08/09 21:10:40;;;;;;;15.25;9.32;;;;;;;15.05;85.43;101500.50;10171314;28;20045;-66
2021/08/09 21:15:36;;;;;;;17.40;9.45;;;;;;;15.09;85.87;101495.97;10146083;28;20694;-66
2021/08/09 21:20:34;;;;;;;17.55;9.32;;;;;;;15.14;86.43;101502.09;10167540;28;20096;-65
2021/08/09 21:25:31;;;;;;;17.95;9.23;;;;;;;15.20;86.27;101508.25;10165696;28;20069;-66
2021/08/09 21:30:27;;;;;;;17.17;9.50;;;;;;;15.20;86.60;101519.25;10163841;28;20390;-65
2021/08/09 21:35:24;;;;;;;15.85;8.88;;;;;;;15.14;85.92;101559.13;10141161;28;20515;-65
2021/08/09 21:40:21;;;;;;;19.33;8.93;;;;;;;15.13;85.42;101535.47;10171823;28;20080;-66
2021/08/09 21:45:17;;;;;;;15.63;8.25;;;;;;;15.15;85.68;101513.91;10193982;28;20077;-66
2021/08/09 21:50:14;;;;;;;14.27;8.45;;;;;;;15.18;86.60;101499.50;10162728;28;20092;-66
2021/08/09 21:55:10;;;;;;;17.10;8.50;;;;;;;15.18;86.57;101493.97;10194944;28;20099;-66
2021/08/09 22:00:09;;;;;;;16.35;9.38;;;;;;;15.22;88.07;101503.19;10148356;28;20132;-66
2021/08/09 22:05:06;;;;;;;14.45;9.23;;;;;;;15.23;88.17;101513.06;10175165;28;20085;-66
2021/08/09 22:10:03;;;;;;;15.57;8.15;;;;;;;15.15;88.29;101549.72;10169952;28;20096;-66
2021/08/09 22:15:00;;;;;;;14.32;8.20;;;;;;;15.21;88.38;101542.91;10176920;28;20093;-66
2021/08/09 22:19:57;;;;;;;14.90;7.93;;;;;;;15.25;88.38;101532.84;10193640;28;20053;-65
2021/08/09 22:24:54;;;;;;;15.48;7.53;;;;;;;15.26;87.90;101520.66;10135569;28;20046;-66
2021/08/09 22:29:50;;;;;;;15.13;8.07;;;;;;;15.25;88.45;101521.03;10166354;28;20077;-66
2021/08/09 22:34:47;;;;;;;15.93;8.90;;;;;;;15.32;88.06;101505.59;10170207;28;20125;-66
2021/08/09 22:39:43;;;;;;;15.85;7.60;;;;;;;15.38;89.02;101497.13;10192202;28;20077;-65
2021/08/09 22:44:40;;;;;;;15.48;8.35;;;;;;;15.38;88.78;101486.09;10174215;28;20153;-65